Terminal Aerodrome Forecast
Issued by NWS Billings, MT

Home | Current Version | Previous Version | Text Only | Print | Product List | Glossary On
Versions: 1 2 3 4 5 6 7 8 9 10 11 12 13 14 15 16
000
FTUS45 KBYZ 311740
TAFSHR
TAF
KSHR 311740Z 3118/0118 31025G40KT P6SM BKN090
     FM010000 33018KT P6SM FEW050 SCT090
     FM010200 29010KT P6SM FEW050 SCT200
     FM010600 VRB05KT P6SM SKC=

USA.gov is the U.S. government's official web portal to all federal, state and local government web resources and services.